Corvallis, MT (59828)

2:15 AM MDT on September 20, 2014 (GMT -0600)
MesoWest CORVALLIS MT US AGRIMET | Change Station
CLOSE
Current Station
Personal Weather Station
Location: Corvallis, MT
Elevation: 3596 ft
Nearby Weather Stations

Elev 3596 ft 46.33 °N, 114.08 °W | Updated 1 hour ago

Clear
Clear
50 °F
Feels Like 49 °F
N
4
Wind Variable Wind from ESE
Gusts 5.0 mph

Today
High -- | Low -- °F
--% Chance of Precip.
Yesterday
High -- | Low -- °F
Precip. -- in
7:20 AM 7:37 PM
Waning Crescent, 14% visible
Pressure 30.17 in
Visibility 10.0 miles
Clouds Clear
Windchill 49 °F
Dew Point 44 °F
Humidity 79%
Rainfall -999.00 in
Snow Depth Not available.
UV 0 out of 12
Pollen 6.40 out of 12
Air Quality Not available.
Flu Activity Not available.
METAR KMSO 200753Z AUTO 00000KT 10SM CLR 11/07 A3019 RMK AO2 SLP214 T01110067

More Conditions Fewer Conditions

Pressure 30.17 in
Visibility 10.0 miles
Clouds Clear
Windchill 49 °F
Dew Point 44 °F
Humidity 79%
Rainfall -999.00 in
Snow Depth Not available.
UV 0 out of 12
Pollen 6.40 out of 12
Air Quality Not available.
Flu Activity Not available.
METAR KMSO 200753Z AUTO 00000KT 10SM CLR 11/07 A3019 RMK AO2 SLP214 T01110067

More Conditions Fewer Conditions

10-Day Weather Forecast

Almanac

Astronomy

Sep. 20, 2014 Rise Set
Actual Time 7:20 AM MDT 7:37 PM MDT
Civil Twilight 6:50 AM MDT 8:07 PM MDT
Nautical Twilight 6:15 AM MDT 8:43 PM MDT
Astronomical Twilight 5:38 AM MDT 9:19 PM MDT
Moon 3:54 AM MDT 5:50 PM MDT
Length of Visible Light 13h 17m
Length of Day
12h 16m
Tomorrow will be 3m 15s shorter.
Waning Crescent, 14% of the Moon is Illuminated
Today
Waning Crescent
Sep 24
New
Oct 1
First Quarter
Oct 8
Full
Oct 15
Last Quarter

Today's Extremes

State Highs State Lows

Community

WunderPhotos

Upload Photos

1,754,793 photos uploaded!

WunderBlogs® & News

Nearby

Snow Depth

Station Depth Elevation
Calvert Creek 0 in 6430 ft
Carrot Basin 1 in 9000 ft
Garver Creek 1 in 4250 ft
Barker Lakes 0 in 8250 ft
Nez Perce Camp 0 in 5650 ft

Earthquake Activity

City Distance Mag. Time & Date
No recent earthquake activity has been reported nearby.
Minimum magnitude displayed is 2.5.

Coastal Water Temperatures

Place Temperature
No Stations Reporting

Nearby Weather Stations